sensor_id;sensor_type;location;lat;lon;timestamp;pressure;altitude;pressure_sealevel;temperature
45565;BMP280;31280;40.408;17.282;2023-01-24T00:00:34;102037.06;;;9.06
45565;BMP280;31280;40.408;17.282;2023-01-24T00:03:00;102052.59;;;9.20
45565;BMP280;31280;40.408;17.282;2023-01-24T00:05:25;102055.69;;;9.18
45565;BMP280;31280;40.408;17.282;2023-01-24T00:07:51;102058.78;;;9.20
45565;BMP280;31280;40.408;17.282;2023-01-24T00:10:17;102071.03;;;9.21
45565;BMP280;31280;40.408;17.282;2023-01-24T00:12:43;102069.53;;;9.23
45565;BMP280;31280;40.408;17.282;2023-01-24T00:15:08;102063.34;;;9.16
45565;BMP280;31280;40.408;17.282;2023-01-24T00:17:34;102074.09;;;9.16
45565;BMP280;31280;40.408;17.282;2023-01-24T00:20:00;102063.06;;;8.95
45565;BMP280;31280;40.408;17.282;2023-01-24T00:22:26;102083.50;;;9.03
45565;BMP280;31280;40.408;17.282;2023-01-24T00:24:52;102050.13;;;8.75
45565;BMP280;31280;40.408;17.282;2023-01-24T00:27:17;102069.97;;;8.96
45565;BMP280;31280;40.408;17.282;2023-01-24T00:29:43;102089.69;;;9.07
45565;BMP280;31280;40.408;17.282;2023-01-24T00:32:09;102096.25;;;9.10
45565;BMP280;31280;40.408;17.282;2023-01-24T00:34:35;102105.50;;;9.12
45565;BMP280;31280;40.408;17.282;2023-01-24T00:37:01;102097.06;;;9.14
45565;BMP280;31280;40.408;17.282;2023-01-24T00:39:26;102098.63;;;9.15
45565;BMP280;31280;40.408;17.282;2023-01-24T00:41:52;102091.63;;;9.07
45565;BMP280;31280;40.408;17.282;2023-01-24T00:44:18;102107.44;;;9.12
45565;BMP280;31280;40.408;17.282;2023-01-24T00:46:43;102099.22;;;9.01
45565;BMP280;31280;40.408;17.282;2023-01-24T00:49:09;102113.97;;;9.11
45565;BMP280;31280;40.408;17.282;2023-01-24T00:51:35;102093.78;;;8.98
45565;BMP280;31280;40.408;17.282;2023-01-24T00:54:01;102104.13;;;8.96
45565;BMP280;31280;40.408;17.282;2023-01-24T00:56:27;102111.13;;;9.04
45565;BMP280;31280;40.408;17.282;2023-01-24T00:58:53;102111.84;;;8.97
45565;BMP280;31280;40.408;17.282;2023-01-24T01:01:19;102125.16;;;8.90
45565;BMP280;31280;40.408;17.282;2023-01-24T01:03:45;102115.75;;;8.78
45565;BMP280;31280;40.408;17.282;2023-01-24T01:06:15;102125.91;;;8.88
45565;BMP280;31280;40.408;17.282;2023-01-24T01:08:41;102130.75;;;8.79
45565;BMP280;31280;40.408;17.282;2023-01-24T01:11:08;102121.13;;;8.78
45565;BMP280;31280;40.408;17.282;2023-01-24T01:13:34;102121.13;;;8.74
45565;BMP280;31280;40.408;17.282;2023-01-24T01:16:05;102124.19;;;8.76
45565;BMP280;31280;40.408;17.282;2023-01-24T01:18:32;102126.88;;;8.76
45565;BMP280;31280;40.408;17.282;2023-01-24T01:20:58;102119.53;;;8.73
45565;BMP280;31280;40.408;17.282;2023-01-24T01:23:24;102123.41;;;8.76
45565;BMP280;31280;40.408;17.282;2023-01-24T01:25:50;102117.63;;;8.74
45565;BMP280;31280;40.408;17.282;2023-01-24T01:28:16;102125.69;;;8.74
45565;BMP280;31280;40.408;17.282;2023-01-24T01:30:41;102116.50;;;8.75
45565;BMP280;31280;40.408;17.282;2023-01-24T01:33:07;102117.28;;;8.75
45565;BMP280;31280;40.408;17.282;2023-01-24T01:35:32;102110.22;;;8.67
45565;BMP280;31280;40.408;17.282;2023-01-24T01:37:58;102115.13;;;8.62
45565;BMP280;31280;40.408;17.282;2023-01-24T01:40:24;102121.75;;;8.68
45565;BMP280;31280;40.408;17.282;2023-01-24T01:42:53;102107.28;;;8.50
45565;BMP280;31280;40.408;17.282;2023-01-24T01:45:38;102124.69;;;8.59
45565;BMP280;31280;40.408;17.282;2023-01-24T01:53:38;102124.22;;;8.54
45565;BMP280;31280;40.408;17.282;2023-01-24T01:58:55;102130.41;;;8.58
45565;BMP280;31280;40.408;17.282;2023-01-24T02:01:22;102118.50;;;8.56
45565;BMP280;31280;40.408;17.282;2023-01-24T02:03:53;102113.06;;;8.52
45565;BMP280;31280;40.408;17.282;2023-01-24T02:06:33;102120.09;;;8.60
45565;BMP280;31280;40.408;17.282;2023-01-24T02:09:01;102120.50;;;8.62
45565;BMP280;31280;40.408;17.282;2023-01-24T02:11:30;102124.75;;;8.63
45565;BMP280;31280;40.408;17.282;2023-01-24T02:14:08;102129.41;;;8.66
45565;BMP280;31280;40.408;17.282;2023-01-24T02:16:53;102106.97;;;8.55
45565;BMP280;31280;40.408;17.282;2023-01-24T02:21:53;102123.66;;;8.67
45565;BMP280;31280;40.408;17.282;2023-01-24T02:24:25;102129.81;;;8.68
45565;BMP280;31280;40.408;17.282;2023-01-24T02:26:55;102136.31;;;8.67
45565;BMP280;31280;40.408;17.282;2023-01-24T02:29:21;102120.94;;;8.64
45565;BMP280;31280;40.408;17.282;2023-01-24T02:31:55;102130.22;;;8.70
45565;BMP280;31280;40.408;17.282;2023-01-24T02:34:22;102112.44;;;8.62
45565;BMP280;31280;40.408;17.282;2023-01-24T02:36:52;102127.94;;;8.72
45565;BMP280;31280;40.408;17.282;2023-01-24T02:39:24;102127.19;;;8.71
45565;BMP280;31280;40.408;17.282;2023-01-24T02:42:05;102131.78;;;8.71
45565;BMP280;31280;40.408;17.282;2023-01-24T02:44:40;102139.78;;;8.67
45565;BMP280;31280;40.408;17.282;2023-01-24T02:47:08;102145.53;;;8.66
45565;BMP280;31280;40.408;17.282;2023-01-24T02:49:34;102128.88;;;8.57
45565;BMP280;31280;40.408;17.282;2023-01-24T02:51:59;102145.53;;;8.66
45565;BMP280;31280;40.408;17.282;2023-01-24T02:54:44;102133.06;;;8.55
45565;BMP280;31280;40.408;17.282;2023-01-24T02:57:09;102151.56;;;8.59
45565;BMP280;31280;40.408;17.282;2023-01-24T02:59:54;102080.91;;;8.11
45565;BMP280;31280;40.408;17.282;2023-01-24T03:02:19;102143.31;;;8.49
45565;BMP280;31280;40.408;17.282;2023-01-24T03:04:45;102152.88;;;8.47
45565;BMP280;31280;40.408;17.282;2023-01-24T03:07:10;102151.34;;;8.49
45565;BMP280;31280;40.408;17.282;2023-01-24T03:09:36;102135.47;;;8.37
45565;BMP280;31280;40.408;17.282;2023-01-24T03:12:06;102147.13;;;8.48
45565;BMP280;31280;40.408;17.282;2023-01-24T03:14:51;102139.38;;;8.43
45565;BMP280;31280;40.408;17.282;2023-01-24T03:17:35;102157.66;;;8.57
45565;BMP280;31280;40.408;17.282;2023-01-24T03:20:20;102158.41;;;8.57
45565;BMP280;31280;40.408;17.282;2023-01-24T03:23:04;102155.25;;;8.52
45565;BMP280;31280;40.408;17.282;2023-01-24T03:25:53;102163.78;;;8.57
45565;BMP280;31280;40.408;17.282;2023-01-24T03:28:38;102161.09;;;8.57
45565;BMP280;31280;40.408;17.282;2023-01-24T03:31:22;102158.41;;;8.57
45565;BMP280;31280;40.408;17.282;2023-01-24T03:34:06;102157.66;;;8.57
45565;BMP280;31280;40.408;17.282;2023-01-24T03:36:50;102158.03;;;8.58
45565;BMP280;31280;40.408;17.282;2023-01-24T03:39:16;102160.72;;;8.58
45565;BMP280;31280;40.408;17.282;2023-01-24T03:42:00;102152.19;;;8.53
45565;BMP280;31280;40.408;17.282;2023-01-24T03:44:26;102156.88;;;8.56
45565;BMP280;31280;40.408;17.282;2023-01-24T03:46:52;102159.94;;;8.58
45565;BMP280;31280;40.408;17.282;2023-01-24T03:49:18;102139.38;;;8.43
45565;BMP280;31280;40.408;17.282;2023-01-24T03:51:43;102159.00;;;8.47
45565;BMP280;31280;40.408;17.282;2023-01-24T03:54:27;102155.19;;;8.48
45565;BMP280;31280;40.408;17.282;2023-01-24T03:56:53;102131.69;;;8.42
45565;BMP280;31280;40.408;17.282;2023-01-24T03:59:20;102153.94;;;8.42
45565;BMP280;31280;40.408;17.282;2023-01-24T04:01:46;102142.25;;;8.31
45565;BMP280;31280;40.408;17.282;2023-01-24T04:04:11;102154.19;;;8.34
45565;BMP280;31280;40.408;17.282;2023-01-24T04:06:37;102162.19;;;8.30
45565;BMP280;31280;40.408;17.282;2023-01-24T04:09:03;102148.28;;;8.25
45565;BMP280;31280;40.408;17.282;2023-01-24T04:11:28;102152.72;;;8.36
45565;BMP280;31280;40.408;17.282;2023-01-24T04:13:54;102169.59;;;8.37
45565;BMP280;31280;40.408;17.282;2023-01-24T04:16:20;102164.22;;;8.37
45565;BMP280;31280;40.408;17.282;2023-01-24T04:18:46;102166.47;;;8.35
45565;BMP280;31280;40.408;17.282;2023-01-24T04:21:12;102169.44;;;8.30
45565;BMP280;31280;40.408;17.282;2023-01-24T04:23:38;102163.25;;;8.26
45565;BMP280;31280;40.408;17.282;2023-01-24T04:26:05;102172.50;;;8.28
45565;BMP280;31280;40.408;17.282;2023-01-24T04:28:31;102155.53;;;8.25
45565;BMP280;31280;40.408;17.282;2023-01-24T04:30:58;102171.09;;;8.34
45565;BMP280;31280;40.408;17.282;2023-01-24T04:33:25;102173.13;;;8.22
45565;BMP280;31280;40.408;17.282;2023-01-24T04:35:51;102151.34;;;8.05
45565;BMP280;31280;40.408;17.282;2023-01-24T04:38:17;102176.06;;;8.14
45565;BMP280;31280;40.408;17.282;2023-01-24T04:40:42;102152.75;;;7.99
45565;BMP280;31280;40.408;17.282;2023-01-24T04:43:08;102184.22;;;8.21
45565;BMP280;31280;40.408;17.282;2023-01-24T04:45:34;102181.25;;;8.26
45565;BMP280;31280;40.408;17.282;2023-01-24T04:48:00;102184.00;;;8.29
45565;BMP280;31280;40.408;17.282;2023-01-24T04:50:25;102183.28;;;8.32
45565;BMP280;31280;40.408;17.282;2023-01-24T04:52:51;102180.25;;;8.33
45565;BMP280;31280;40.408;17.282;2023-01-24T04:55:17;102181.84;;;8.38
45565;BMP280;31280;40.408;17.282;2023-01-24T04:57:43;102174.88;;;8.33
45565;BMP280;31280;40.408;17.282;2023-01-24T05:00:09;102172.50;;;8.28
45565;BMP280;31280;40.408;17.282;2023-01-24T05:02:35;102187.22;;;8.38
45565;BMP280;31280;40.408;17.282;2023-01-24T05:05:06;102191.06;;;8.37
45565;BMP280;31280;40.408;17.282;2023-01-24T05:07:32;102184.78;;;8.29
45565;BMP280;31280;40.408;17.282;2023-01-24T05:09:58;102192.56;;;8.34
45565;BMP280;31280;40.408;17.282;2023-01-24T05:12:24;102200.19;;;8.32
45565;BMP280;31280;40.408;17.282;2023-01-24T05:14:49;102195.38;;;8.23
45565;BMP280;31280;40.408;17.282;2023-01-24T05:17:15;102204.66;;;8.25
45565;BMP280;31280;40.408;17.282;2023-01-24T05:19:41;102203.50;;;8.26
45565;BMP280;31280;40.408;17.282;2023-01-24T05:22:06;102213.06;;;8.24
45565;BMP280;31280;40.408;17.282;2023-01-24T05:24:32;102208.47;;;8.24
45565;BMP280;31280;40.408;17.282;2023-01-24T05:26:57;102203.84;;;8.25
45565;BMP280;31280;40.408;17.282;2023-01-24T05:29:23;102211.84;;;8.21
45565;BMP280;31280;40.408;17.282;2023-01-24T05:31:49;102207.56;;;8.17
45565;BMP280;31280;40.408;17.282;2023-01-24T05:34:14;102224.47;;;8.21
45565;BMP280;31280;40.408;17.282;2023-01-24T05:36:40;102207.50;;;8.13
45565;BMP280;31280;40.408;17.282;2023-01-24T05:39:06;102222.94;;;8.20
45565;BMP280;31280;40.408;17.282;2023-01-24T05:41:31;102225.06;;;8.11
45565;BMP280;31280;40.408;17.282;2023-01-24T05:43:57;102207.63;;;8.01
45565;BMP280;31280;40.408;17.282;2023-01-24T05:46:22;102231.28;;;8.15
45565;BMP280;31280;40.408;17.282;2023-01-24T05:48:49;102227.81;;;8.14
45565;BMP280;31280;40.408;17.282;2023-01-24T05:51:17;102237.44;;;8.15
45565;BMP280;31280;40.408;17.282;2023-01-24T05:53:43;102242.38;;;8.13
45565;BMP280;31280;40.408;17.282;2023-01-24T05:56:12;102242.72;;;8.12
45565;BMP280;31280;40.408;17.282;2023-01-24T05:58:39;102239.00;;;8.16
45565;BMP280;31280;40.408;17.282;2023-01-24T06:01:26;102243.00;;;8.07
45565;BMP280;31280;40.408;17.282;2023-01-24T06:03:52;102251.91;;;8.11
45565;BMP280;31280;40.408;17.282;2023-01-24T06:06:20;102242.63;;;8.08
45565;BMP280;31280;40.408;17.282;2023-01-24T06:08:47;102252.63;;;8.08
45565;BMP280;31280;40.408;17.282;2023-01-24T06:11:19;102257.25;;;8.11
45565;BMP280;31280;40.408;17.282;2023-01-24T06:13:45;102257.69;;;8.13
45565;BMP280;31280;40.408;17.282;2023-01-24T06:16:13;102246.41;;;8.04
45565;BMP280;31280;40.408;17.282;2023-01-24T06:18:39;102245.28;;;8.05
45565;BMP280;31280;40.408;17.282;2023-01-24T06:23:51;102259.50;;;8.09
45565;BMP280;31280;40.408;17.282;2023-01-24T06:26:17;102264.13;;;8.08
45565;BMP280;31280;40.408;17.282;2023-01-24T06:28:42;102261.38;;;8.05
45565;BMP280;31280;40.408;17.282;2023-01-24T06:37:10;102272.34;;;7.96
45565;BMP280;31280;40.408;17.282;2023-01-24T06:39:39;102267.94;;;7.89
45565;BMP280;31280;40.408;17.282;2023-01-24T06:42:05;102264.03;;;7.86
45565;BMP280;31280;40.408;17.282;2023-01-24T06:44:31;102274.22;;;7.96
45565;BMP280;31280;40.408;17.282;2023-01-24T06:46:56;102272.72;;;7.98
45565;BMP280;31280;40.408;17.282;2023-01-24T06:49:22;102280.59;;;8.07
45565;BMP280;31280;40.408;17.282;2023-01-24T06:51:51;102284.09;;;8.11
45565;BMP280;31280;40.408;17.282;2023-01-24T06:54:17;102264.06;;;8.05
45565;BMP280;31280;40.408;17.282;2023-01-24T06:56:43;102288.91;;;8.21
45565;BMP280;31280;40.408;17.282;2023-01-24T06:59:09;102278.13;;;8.17
45565;BMP280;31280;40.408;17.282;2023-01-24T07:01:35;102294.78;;;8.26
45565;BMP280;31280;40.408;17.282;2023-01-24T07:04:00;102282.69;;;8.17
45565;BMP280;31280;40.408;17.282;2023-01-24T07:06:26;102282.84;;;8.24
45565;BMP280;31280;40.408;17.282;2023-01-24T07:08:52;102298.47;;;8.37
45565;BMP280;31280;40.408;17.282;2023-01-24T07:11:18;102299.28;;;8.41
45565;BMP280;31280;40.408;17.282;2023-01-24T07:13:44;102307.44;;;8.44
45565;BMP280;31280;40.408;17.282;2023-01-24T07:16:10;102314.75;;;8.47
45565;BMP280;31280;40.408;17.282;2023-01-24T07:18:36;102312.47;;;8.49
45565;BMP280;31280;40.408;17.282;2023-01-24T07:21:06;102313.41;;;8.57
45565;BMP280;31280;40.408;17.282;2023-01-24T07:23:33;102312.41;;;8.64
45565;BMP280;31280;40.408;17.282;2023-01-24T07:26:00;102320.25;;;8.73
45565;BMP280;31280;40.408;17.282;2023-01-24T07:28:26;102317.66;;;8.80
45565;BMP280;31280;40.408;17.282;2023-01-24T07:30:53;102325.59;;;8.91
45565;BMP280;31280;40.408;17.282;2023-01-24T07:33:18;102329.94;;;8.99
45565;BMP280;31280;40.408;17.282;2023-01-24T07:35:44;102335.41;;;9.06
45565;BMP280;31280;40.408;17.282;2023-01-24T07:38:10;102329.81;;;9.15
45565;BMP280;31280;40.408;17.282;2023-01-24T07:40:37;102326.78;;;9.16
45565;BMP280;31280;40.408;17.282;2023-01-24T07:43:04;102335.28;;;9.18
45565;BMP280;31280;40.408;17.282;2023-01-24T07:45:30;102306.56;;;9.03
45565;BMP280;31280;40.408;17.282;2023-01-24T07:47:58;102336.22;;;9.29
45565;BMP280;31280;40.408;17.282;2023-01-24T07:50:24;102347.09;;;9.36
45565;BMP280;31280;40.408;17.282;2023-01-24T07:52:51;102320.88;;;9.29
45565;BMP280;31280;40.408;17.282;2023-01-24T07:55:17;102328.03;;;9.48
45565;BMP280;31280;40.408;17.282;2023-01-24T07:57:43;102353.66;;;9.64
45565;BMP280;31280;40.408;17.282;2023-01-24T08:00:09;102349.88;;;9.68
45565;BMP280;31280;40.408;17.282;2023-01-24T08:02:36;102330.09;;;9.57
45565;BMP280;31280;40.408;17.282;2023-01-24T08:05:01;102353.03;;;9.74
45565;BMP280;31280;40.408;17.282;2023-01-24T08:07:27;102354.66;;;9.78
45565;BMP280;31280;40.408;17.282;2023-01-24T08:09:52;102340.84;;;9.80
45565;BMP280;31280;40.408;17.282;2023-01-24T08:12:18;102351.00;;;9.93
45565;BMP280;31280;40.408;17.282;2023-01-24T08:14:44;102345.72;;;10.00
45565;BMP280;31280;40.408;17.282;2023-01-24T08:17:10;102348.09;;;10.05
45565;BMP280;31280;40.408;17.282;2023-01-24T08:19:35;102346.56;;;10.07
45565;BMP280;31280;40.408;17.282;2023-01-24T08:22:02;102339.19;;;10.01
45565;BMP280;31280;40.408;17.282;2023-01-24T08:24:28;102334.56;;;10.01
45565;BMP280;31280;40.408;17.282;2023-01-24T08:26:53;102352.09;;;10.17
45565;BMP280;31280;40.408;17.282;2023-01-24T08:29:19;102339.75;;;10.16
45565;BMP280;31280;40.408;17.282;2023-01-24T08:31:45;102351.47;;;10.27
45565;BMP280;31280;40.408;17.282;2023-01-24T08:34:11;102356.53;;;10.32
45565;BMP280;31280;40.408;17.282;2023-01-24T08:36:36;102349.97;;;10.33
45565;BMP280;31280;40.408;17.282;2023-01-24T08:39:02;102352.41;;;10.42
45565;BMP280;31280;40.408;17.282;2023-01-24T08:41:29;102357.09;;;10.48
45565;BMP280;31280;40.408;17.282;2023-01-24T08:43:55;102340.13;;;10.44
45565;BMP280;31280;40.408;17.282;2023-01-24T08:46:21;102351.78;;;10.55
45565;BMP280;31280;40.408;17.282;2023-01-24T08:48:46;102351.84;;;10.62
45565;BMP280;31280;40.408;17.282;2023-01-24T08:51:12;102351.53;;;10.67
45565;BMP280;31280;40.408;17.282;2023-01-24T08:53:38;102351.19;;;10.72
45565;BMP280;31280;40.408;17.282;2023-01-24T08:56:04;102354.31;;;10.77
45565;BMP280;31280;40.408;17.282;2023-01-24T08:58:30;102355.22;;;10.88
45565;BMP280;31280;40.408;17.282;2023-01-24T09:00:59;102349.13;;;10.98
45565;BMP280;31280;40.408;17.282;2023-01-24T09:03:25;102337.19;;;10.95
45565;BMP280;31280;40.408;17.282;2023-01-24T09:05:56;102346.94;;;11.10
45565;BMP280;31280;40.408;17.282;2023-01-24T09:08:23;102355.06;;;11.17
45565;BMP280;31280;40.408;17.282;2023-01-24T09:10:49;102344.75;;;11.26
45565;BMP280;31280;40.408;17.282;2023-01-24T09:13:30;102347.88;;;11.31
45565;BMP280;31280;40.408;17.282;2023-01-24T09:15:58;102354.09;;;11.39
45565;BMP280;31280;40.408;17.282;2023-01-24T09:18:24;102359.56;;;11.49
45565;BMP280;31280;40.408;17.282;2023-01-24T09:20:50;102350.31;;;11.53
45565;BMP280;31280;40.408;17.282;2023-01-24T09:23:16;102351.56;;;11.63
45565;BMP280;31280;40.408;17.282;2023-01-24T09:25:50;102347.34;;;11.72
45565;BMP280;31280;40.408;17.282;2023-01-24T09:28:15;102349.69;;;11.73
45565;BMP280;31280;40.408;17.282;2023-01-24T09:30:43;102346.28;;;11.83
45565;BMP280;31280;40.408;17.282;2023-01-24T09:33:09;102348.63;;;11.92
45565;BMP280;31280;40.408;17.282;2023-01-24T09:35:35;102347.09;;;11.98
45565;BMP280;31280;40.408;17.282;2023-01-24T09:38:01;102342.91;;;12.03
45565;BMP280;31280;40.408;17.282;2023-01-24T09:40:40;102346.00;;;12.12
45565;BMP280;31280;40.408;17.282;2023-01-24T09:43:36;102337.56;;;12.17
45565;BMP280;31280;40.408;17.282;2023-01-24T09:46:33;102335.63;;;12.21
45565;BMP280;31280;40.408;17.282;2023-01-24T09:49:13;102336.41;;;12.29
45565;BMP280;31280;40.408;17.282;2023-01-24T09:51:47;102336.44;;;12.35
45565;BMP280;31280;40.408;17.282;2023-01-24T09:54:32;102325.28;;;12.44
45565;BMP280;31280;40.408;17.282;2023-01-24T09:56:59;102324.47;;;12.47
45565;BMP280;31280;40.408;17.282;2023-01-24T09:59:41;102326.81;;;12.59
45565;BMP280;31280;40.408;17.282;2023-01-24T10:02:20;102326.06;;;12.65
45565;BMP280;31280;40.408;17.282;2023-01-24T10:04:47;102317.97;;;12.72
45565;BMP280;31280;40.408;17.282;2023-01-24T10:21:34;102309.84;;;12.93
45565;BMP280;31280;40.408;17.282;2023-01-24T10:23:56;102294.41;;;12.93
45565;BMP280;31280;40.408;17.282;2023-01-24T10:26:37;102309.47;;;13.08
45565;BMP280;31280;40.408;17.282;2023-01-24T10:29:25;102303.66;;;13.13
45565;BMP280;31280;40.408;17.282;2023-01-24T10:32:00;102309.06;;;13.20
45565;BMP280;31280;40.408;17.282;2023-01-24T10:34:56;102311.34;;;13.28
45565;BMP280;31280;40.408;17.282;2023-01-24T10:37:37;102285.84;;;13.25
45565;BMP280;31280;40.408;17.282;2023-01-24T10:40:14;102291.97;;;13.43
45565;BMP280;31280;40.408;17.282;2023-01-24T10:42:41;102289.28;;;13.43
45565;BMP280;31280;40.408;17.282;2023-01-24T10:51:18;102279.53;;;13.63
45565;BMP280;31280;40.408;17.282;2023-01-24T10:53:45;102278.34;;;13.71
45565;BMP280;31280;40.408;17.282;2023-01-24T10:56:12;102277.16;;;13.72
45565;BMP280;31280;40.408;17.282;2023-01-24T10:59:09;102263.25;;;13.73
45565;BMP280;31280;40.408;17.282;2023-01-24T11:01:43;102267.84;;;13.80
45565;BMP280;31280;40.408;17.282;2023-01-24T11:04:26;102264.34;;;13.86
45565;BMP280;31280;40.408;17.282;2023-01-24T11:06:52;102252.38;;;13.80
45565;BMP280;31280;40.408;17.282;2023-01-24T11:09:20;102262.41;;;13.80
45565;BMP280;31280;40.408;17.282;2023-01-24T11:11:50;102265.13;;;13.80
45565;BMP280;31280;40.408;17.282;2023-01-24T11:14:20;102255.44;;;13.85
45565;BMP280;31280;40.408;17.282;2023-01-24T11:16:50;102255.47;;;13.79
45565;BMP280;31280;40.408;17.282;2023-01-24T11:19:37;102253.13;;;13.81
45565;BMP280;31280;40.408;17.282;2023-01-24T11:22:21;102244.94;;;13.91
45565;BMP280;31280;40.408;17.282;2023-01-24T11:24:48;102250.34;;;13.94
45565;BMP280;31280;40.408;17.282;2023-01-24T11:27:16;102253.78;;;13.98
45565;BMP280;31280;40.408;17.282;2023-01-24T11:29:43;102242.16;;;14.05
45565;BMP280;31280;40.408;17.282;2023-01-24T11:32:27;102238.63;;;14.11
45565;BMP280;31280;40.408;17.282;2023-01-24T11:34:57;102237.41;;;14.15
45565;BMP280;31280;40.408;17.282;2023-01-24T11:51:35;102231.03;;;14.39
45565;BMP280;31280;40.408;17.282;2023-01-24T11:56:49;102227.06;;;14.50
45565;BMP280;31280;40.408;17.282;2023-01-24T12:05:10;102227.69;;;14.71
45565;BMP280;31280;40.408;17.282;2023-01-24T12:21:59;102206.41;;;14.99
45565;BMP280;31280;40.408;17.282;2023-01-24T12:24:31;102196.34;;;15.00
45565;BMP280;31280;40.408;17.282;2023-01-24T12:27:10;102190.81;;;15.07
45565;BMP280;31280;40.408;17.282;2023-01-24T12:29:43;102206.53;;;15.22
45565;BMP280;31280;40.408;17.282;2023-01-24T12:32:21;102194.88;;;15.25
45565;BMP280;31280;40.408;17.282;2023-01-24T12:37:47;102186.06;;;15.44
45565;BMP280;31280;40.408;17.282;2023-01-24T12:43:00;102187.09;;;15.53
45565;BMP280;31280;40.408;17.282;2023-01-24T12:47:59;102180.09;;;15.56
45565;BMP280;31280;40.408;17.282;2023-01-24T12:50:45;102178.72;;;15.70
45565;BMP280;31280;40.408;17.282;2023-01-24T12:53:24;102174.28;;;15.80
45565;BMP280;31280;40.408;17.282;2023-01-24T12:58:38;102158.34;;;15.82
45565;BMP280;31280;40.408;17.282;2023-01-24T13:04:10;102173.97;;;16.00
45565;BMP280;31280;40.408;17.282;2023-01-24T13:11:54;102153.94;;;15.91
45565;BMP280;31280;40.408;17.282;2023-01-24T13:22:36;102178.47;;;16.33
45565;BMP280;31280;40.408;17.282;2023-01-24T13:27:54;102166.41;;;16.53
45565;BMP280;31280;40.408;17.282;2023-01-24T13:32:58;102165.28;;;16.50
45565;BMP280;31280;40.408;17.282;2023-01-24T13:35:27;102176.06;;;16.76
45565;BMP280;31280;40.408;17.282;2023-01-24T13:37:58;102175.41;;;16.69
45565;BMP280;31280;40.408;17.282;2023-01-24T13:40:30;102171.66;;;16.82
45565;BMP280;31280;40.408;17.282;2023-01-24T13:43:02;102183.53;;;16.92
45565;BMP280;31280;40.408;17.282;2023-01-24T13:47:58;102187.75;;;17.12
45565;BMP280;31280;40.408;17.282;2023-01-24T13:50:26;102178.09;;;17.27
45565;BMP280;31280;40.408;17.282;2023-01-24T13:53:01;102177.88;;;17.37
45565;BMP280;31280;40.408;17.282;2023-01-24T14:00:49;102190.78;;;17.33
45565;BMP280;31280;40.408;17.282;2023-01-24T14:05:56;102188.25;;;16.88
45565;BMP280;31280;40.408;17.282;2023-01-24T14:27:36;102185.47;;;16.53
45565;BMP280;31280;40.408;17.282;2023-01-24T14:32:38;102195.09;;;16.57
45565;BMP280;31280;40.408;17.282;2023-01-24T14:35:16;102190.75;;;16.60
45565;BMP280;31280;40.408;17.282;2023-01-24T14:37:44;102195.22;;;16.50
45565;BMP280;31280;40.408;17.282;2023-01-24T14:40:30;102191.41;;;16.48
45565;BMP280;31280;40.408;17.282;2023-01-24T14:43:01;102199.91;;;16.27
45565;BMP280;31280;40.408;17.282;2023-01-24T14:45:30;102199.38;;;16.36
45565;BMP280;31280;40.408;17.282;2023-01-24T14:47:56;102199.91;;;16.27
45565;BMP280;31280;40.408;17.282;2023-01-24T14:52:54;102202.22;;;16.06
45565;BMP280;31280;40.408;17.282;2023-01-24T14:57:52;102184.72;;;15.58
45565;BMP280;31280;40.408;17.282;2023-01-24T15:00:18;102206.50;;;15.55
45565;BMP280;31280;40.408;17.282;2023-01-24T15:02:54;102207.75;;;15.47
45565;BMP280;31280;40.408;17.282;2023-01-24T15:05:30;102212.19;;;15.34
45565;BMP280;31280;40.408;17.282;2023-01-24T15:07:57;102215.38;;;15.26
45565;BMP280;31280;40.408;17.282;2023-01-24T15:10:37;102218.38;;;15.05
45565;BMP280;31280;40.408;17.282;2023-01-24T15:13:09;102218.81;;;15.00
45565;BMP280;31280;40.408;17.282;2023-01-24T15:15:38;102218.16;;;14.90
45565;BMP280;31280;40.408;17.282;2023-01-24T15:18:06;102212.81;;;14.83
45565;BMP280;31280;40.408;17.282;2023-01-24T15:20:33;102209.84;;;14.70
45565;BMP280;31280;40.408;17.282;2023-01-24T15:23:00;102205.59;;;14.66
45565;BMP280;31280;40.408;17.282;2023-01-24T15:25:33;102211.56;;;14.54
45565;BMP280;31280;40.408;17.282;2023-01-24T15:28:23;102210.06;;;14.46
45565;BMP280;31280;40.408;17.282;2023-01-24T15:30:53;102200.56;;;14.25
45565;BMP280;31280;40.408;17.282;2023-01-24T15:33:19;102197.13;;;14.17
45565;BMP280;31280;40.408;17.282;2023-01-24T15:35:49;102213.00;;;14.19
45565;BMP280;31280;40.408;17.282;2023-01-24T15:40:52;102216.63;;;14.02
45565;BMP280;31280;40.408;17.282;2023-01-24T15:43:27;102216.28;;;13.93
45565;BMP280;31280;40.408;17.282;2023-01-24T15:49:29;102225.31;;;13.73
45565;BMP280;31280;40.408;17.282;2023-01-24T15:52:02;102223.03;;;13.65
45565;BMP280;31280;40.408;17.282;2023-01-24T15:54:29;102214.56;;;13.52
45565;BMP280;31280;40.408;17.282;2023-01-24T15:57:01;102218.09;;;13.46
45565;BMP280;31280;40.408;17.282;2023-01-24T15:59:28;102208.47;;;13.28
45565;BMP280;31280;40.408;17.282;2023-01-24T16:01:54;102225.50;;;13.28
45565;BMP280;31280;40.408;17.282;2023-01-24T16:04:22;102222.47;;;13.20
45565;BMP280;31280;40.408;17.282;2023-01-24T16:06:48;102236.34;;;13.15
45565;BMP280;31280;40.408;17.282;2023-01-24T16:09:15;102238.34;;;13.04
45565;BMP280;31280;40.408;17.282;2023-01-24T16:11:43;102234.50;;;12.94
45565;BMP280;31280;40.408;17.282;2023-01-24T16:14:20;102232.16;;;12.90
45565;BMP280;31280;40.408;17.282;2023-01-24T16:16:47;102234.88;;;12.83
45565;BMP280;31280;40.408;17.282;2023-01-24T16:19:16;102244.97;;;12.75
45565;BMP280;31280;40.408;17.282;2023-01-24T16:21:45;102238.75;;;12.71
45565;BMP280;31280;40.408;17.282;2023-01-24T16:24:11;102202.06;;;12.46
45565;BMP280;31280;40.408;17.282;2023-01-24T16:26:38;102230.28;;;12.56
45565;BMP280;31280;40.408;17.282;2023-01-24T16:29:12;102228.34;;;12.42
45565;BMP280;31280;40.408;17.282;2023-01-24T16:31:39;102241.06;;;12.38
45565;BMP280;31280;40.408;17.282;2023-01-24T16:34:05;102242.59;;;12.29
45565;BMP280;31280;40.408;17.282;2023-01-24T16:36:31;102239.91;;;12.15